createdAt,value
2017-06-12T00:02:03.420Z,56.2
2017-06-12T00:07:03.224Z,56.1
2017-06-12T00:12:03.148Z,56.0
2017-06-12T00:17:03.854Z,56.0
2017-06-12T00:22:03.618Z,56.0
2017-06-12T00:27:03.854Z,56.1
2017-06-12T00:32:03.790Z,56.1
2017-06-12T00:37:03.433Z,56.2
2017-06-12T00:42:03.108Z,56.1
2017-06-12T00:47:03.752Z,56.0
2017-06-12T00:52:03.683Z,56.0
2017-06-12T00:57:03.373Z,55.8
2017-06-12T01:02:03.106Z,55.9
2017-06-12T01:07:03.515Z,55.9
2017-06-12T01:12:03.579Z,55.9
2017-06-12T01:17:03.171Z,55.8
2017-06-12T01:22:03.426Z,55.7
2017-06-12T01:27:03.201Z,55.8
2017-06-12T01:32:04.256Z,55.6
2017-06-12T01:37:03.628Z,55.7
2017-06-12T01:42:03.259Z,55.6
2017-06-12T01:47:03.278Z,55.4
2017-06-12T01:52:03.912Z,55.4
2017-06-12T01:57:03.511Z,55.3
2017-06-12T02:02:03.333Z,55.2
2017-06-12T02:07:03.259Z,55.2
2017-06-12T02:12:03.380Z,55.2
2017-06-12T02:17:03.553Z,55.4
2017-06-12T02:22:03.585Z,55.2
2017-06-12T02:27:03.835Z,55.2
2017-06-12T02:32:05.377Z,55.2
2017-06-12T02:37:03.502Z,55.2
2017-06-12T02:42:03.869Z,55.2
2017-06-12T02:47:19.643Z,55.3
2017-06-12T02:52:03.711Z,55.3
2017-06-12T02:57:03.368Z,55.3
2017-06-12T03:02:23.947Z,55.1
2017-06-12T03:07:03.195Z,55.1
2017-06-12T03:12:03.493Z,55.2
2017-06-12T03:17:26.311Z,55.0
2017-06-12T03:22:03.728Z,55.0
2017-06-12T03:27:03.296Z,55.1
2017-06-12T03:37:03.227Z,55.1
2017-06-12T03:42:03.573Z,55.0
2017-06-12T03:47:28.722Z,55.0
2017-06-12T03:52:03.340Z,54.9
2017-06-12T03:57:03.774Z,54.9
2017-06-12T04:02:31.351Z,54.7
2017-06-12T04:07:03.670Z,54.8
2017-06-12T04:12:03.249Z,54.7
2017-06-12T04:17:27.881Z,54.6
2017-06-12T04:22:03.098Z,54.6
2017-06-12T04:27:03.613Z,54.6
2017-06-12T04:32:26.657Z,54.5
2017-06-12T04:37:04.010Z,54.3
2017-06-12T04:42:03.325Z,54.3
2017-06-12T04:47:29.226Z,54.2
2017-06-12T04:52:03.055Z,54.1
2017-06-12T04:57:03.543Z,54.1
2017-06-12T05:02:25.725Z,54.0
2017-06-12T05:07:03.536Z,54.3
2017-06-12T05:12:03.128Z,54.2
2017-06-12T05:17:27.809Z,54.3
2017-06-12T05:22:03.092Z,54.1
2017-06-12T05:27:03.538Z,53.7
2017-06-12T05:32:24.154Z,53.9
2017-06-12T05:37:03.269Z,53.9
2017-06-12T05:42:03.706Z,53.9
2017-06-12T05:47:21.559Z,53.9
2017-06-12T05:52:02.978Z,53.9
2017-06-12T05:57:03.427Z,54.0
2017-06-12T06:02:28.557Z,54.1
2017-06-12T06:07:03.425Z,54.4
2017-06-12T06:12:03.902Z,54.5
2017-06-12T06:17:21.992Z,54.7
2017-06-12T06:22:03.131Z,54.7
2017-06-12T06:27:03.827Z,54.3
2017-06-12T06:32:28.083Z,54.0
2017-06-12T06:37:03.382Z,53.4
2017-06-12T06:42:03.754Z,53.2
2017-06-12T06:47:21.691Z,53.2
2017-06-12T06:52:03.877Z,53.4
2017-06-12T06:57:03.251Z,53.9
2017-06-12T07:02:33.217Z,53.9
2017-06-12T07:07:02.975Z,53.4
2017-06-12T07:12:03.294Z,53.4
2017-06-12T07:17:24.205Z,53.6
2017-06-12T07:22:03.370Z,53.4
2017-06-12T07:27:03.779Z,53.1
2017-06-12T07:32:21.292Z,53.8
2017-06-12T07:37:03.416Z,53.9
2017-06-12T07:42:03.787Z,54.1
2017-06-12T07:52:03.629Z,54.1
2017-06-12T07:57:02.940Z,54.1
2017-06-12T08:02:27.593Z,54.4
2017-06-12T08:07:03.708Z,54.2
2017-06-12T08:12:03.125Z,54.1
2017-06-12T08:22:03.693Z,53.9
2017-06-12T08:27:03.953Z,53.9
2017-06-12T08:37:03.577Z,53.9
2017-06-12T08:42:03.838Z,53.4
2017-06-12T08:47:28.059Z,53.9
2017-06-12T08:52:03.352Z,53.8
2017-06-12T08:57:03.717Z,53.8
2017-06-12T09:02:19.285Z,53.3
2017-06-12T09:07:03.693Z,53.1
2017-06-12T09:12:03.731Z,53.4
2017-06-12T09:17:23.052Z,52.8
2017-06-12T09:22:03.696Z,52.4
2017-06-12T09:27:03.173Z,52.4
2017-06-12T09:32:27.970Z,53.0
2017-06-12T09:37:03.394Z,52.2
2017-06-12T09:42:03.809Z,52.7
2017-06-12T09:47:28.192Z,52.8
2017-06-12T09:52:03.112Z,52.7
2017-06-12T09:57:03.574Z,53.3
2017-06-12T10:02:26.712Z,51.8
2017-06-12T10:07:03.168Z,52.1
2017-06-12T10:12:03.720Z,52.3
2017-06-12T10:17:24.444Z,52.3
2017-06-12T10:22:03.510Z,52.4
2017-06-12T10:27:03.825Z,52.8
2017-06-12T10:32:23.341Z,51.9
2017-06-12T10:37:03.217Z,51.8
2017-06-12T10:42:03.529Z,52.5
2017-06-12T10:47:24.555Z,52.6
2017-06-12T10:52:03.048Z,52.6
2017-06-12T10:57:03.501Z,52.4
2017-06-12T11:02:28.305Z,52.9
2017-06-12T11:07:03.509Z,53.0
2017-06-12T11:12:03.087Z,52.9
2017-06-12T11:17:25.416Z,53.0
2017-06-12T11:22:03.762Z,53.1
2017-06-12T11:27:03.217Z,53.1
2017-06-12T11:32:25.636Z,52.6
2017-06-12T11:37:03.698Z,52.8
2017-06-12T11:42:03.080Z,52.8
2017-06-12T11:47:29.026Z,52.1
2017-06-12T11:52:03.070Z,52.5
2017-06-12T11:57:03.602Z,52.5
2017-06-12T12:02:23.054Z,52.7
2017-06-12T12:07:03.349Z,53.0
2017-06-12T12:12:03.900Z,53.0
2017-06-12T12:17:24.487Z,52.5
2017-06-12T12:22:03.370Z,52.5
2017-06-12T12:27:03.822Z,52.5
2017-06-12T12:32:23.731Z,52.6
2017-06-12T12:37:03.233Z,52.6
2017-06-12T12:42:03.273Z,52.2
2017-06-12T12:47:24.910Z,52.2
2017-06-12T12:52:02.991Z,51.5
2017-06-12T12:57:03.458Z,52.0
2017-06-12T13:02:27.529Z,51.9
2017-06-12T13:07:03.241Z,52.3
2017-06-12T13:12:03.887Z,52.2
2017-06-12T13:17:25.141Z,51.5
2017-06-12T13:22:03.800Z,52.2
2017-06-12T13:27:03.285Z,52.2
2017-06-12T13:32:29.026Z,52.2
2017-06-12T13:37:03.787Z,52.2
2017-06-12T13:42:03.789Z,52.2
2017-06-12T13:47:24.894Z,52.2
2017-06-12T13:52:03.702Z,52.1
2017-06-12T13:57:03.136Z,51.8
2017-06-12T14:02:23.846Z,50.8
2017-06-12T14:12:08.005Z,52.0
2017-06-12T14:17:11.347Z,52.7
2017-06-12T14:22:03.844Z,51.0
2017-06-12T14:27:04.016Z,51.0
2017-06-12T14:32:19.384Z,50.9
2017-06-12T14:37:03.063Z,50.9
2017-06-12T14:42:03.559Z,48.2
2017-06-12T14:47:26.502Z,46.1
2017-06-12T14:52:03.009Z,46.1
2017-06-12T14:57:03.123Z,44.0
2017-06-12T15:02:25.053Z,40.6
2017-06-12T15:07:03.398Z,40.5
2017-06-12T15:12:03.950Z,37.8
2017-06-12T15:17:21.620Z,37.2
2017-06-12T15:22:03.275Z,34.9
2017-06-12T15:27:03.944Z,34.5
2017-06-12T15:32:20.169Z,34.5
2017-06-12T15:37:03.094Z,34.1
2017-06-12T15:42:03.487Z,34.0
2017-06-12T15:47:05.973Z,32.7
2017-06-12T15:52:03.101Z,33.0
2017-06-12T15:57:03.469Z,33.0
2017-06-12T16:02:23.895Z,32.3
2017-06-12T16:07:03.619Z,32.7
2017-06-12T16:12:03.184Z,32.4
2017-06-12T16:17:19.042Z,32.0
2017-06-12T16:22:03.878Z,31.4
2017-06-12T16:27:03.235Z,31.8
2017-06-12T16:37:03.847Z,31.3
2017-06-12T16:42:03.103Z,31.7
2017-06-12T16:52:03.435Z,31.8
2017-06-12T16:57:03.750Z,31.8
2017-06-12T17:02:16.251Z,31.8
2017-06-12T17:07:03.785Z,31.8
2017-06-12T17:12:03.217Z,31.7
2017-06-12T17:17:16.052Z,31.6
2017-06-12T17:22:04.028Z,32.1
2017-06-12T17:27:03.290Z,32.1
2017-06-12T17:32:15.022Z,33.0
2017-06-12T17:37:03.769Z,33.0
2017-06-12T17:42:03.025Z,32.4
2017-06-12T17:47:13.234Z,33.5
2017-06-12T17:52:03.389Z,33.6
2017-06-12T17:57:03.654Z,33.5
2017-06-12T18:02:12.854Z,34.0
2017-06-12T18:07:03.676Z,33.7
2017-06-12T18:12:04.052Z,34.2
2017-06-12T18:17:26.960Z,40.1
2017-06-12T18:22:03.785Z,40.1
2017-06-12T18:27:03.144Z,43.1
2017-06-12T18:32:23.814Z,40.3
2017-06-12T18:37:03.827Z,42.8
2017-06-12T18:42:03.148Z,44.5
2017-06-12T18:47:28.828Z,44.8
2017-06-12T18:52:03.060Z,45.5
2017-06-12T18:57:03.501Z,45.4
2017-06-12T19:02:25.307Z,45.7
2017-06-12T19:07:03.597Z,45.6
2017-06-12T19:12:03.080Z,45.9
2017-06-12T19:17:25.118Z,45.9
2017-06-12T19:22:03.089Z,46.0
2017-06-12T19:27:03.514Z,46.0
2017-06-12T19:32:21.993Z,46.2
2017-06-12T19:37:03.286Z,46.2
2017-06-12T19:42:03.940Z,46.3
2017-06-12T19:47:23.660Z,46.4
2017-06-12T19:52:03.389Z,46.4
2017-06-12T19:57:03.714Z,46.5
2017-06-12T20:02:19.413Z,46.5
2017-06-12T20:07:03.590Z,46.6
2017-06-12T20:12:03.199Z,46.7
2017-06-12T20:17:12.018Z,46.6
2017-06-12T20:22:03.937Z,46.6
2017-06-12T20:27:03.376Z,46.9
2017-06-12T20:32:10.861Z,46.9
2017-06-12T20:37:03.115Z,46.9
2017-06-12T20:42:03.440Z,47.0
2017-06-12T20:47:05.837Z,46.9
2017-06-12T20:52:03.790Z,47.0
2017-06-12T20:57:03.170Z,47.1
2017-06-12T21:02:03.403Z,47.2
2017-06-12T21:07:03.780Z,47.2
2017-06-12T21:12:03.307Z,47.2
2017-06-12T21:17:03.553Z,47.2
2017-06-12T21:22:03.924Z,47.2
2017-06-12T21:27:03.264Z,47.3
2017-06-12T21:32:03.825Z,47.3
2017-06-12T21:37:03.827Z,47.3
2017-06-12T21:42:03.136Z,47.3
2017-06-12T21:47:03.424Z,47.5
2017-06-12T21:52:03.741Z,47.4
2017-06-12T21:57:03.923Z,47.5
2017-06-12T22:02:03.430Z,47.1
2017-06-12T22:07:03.847Z,47.2
2017-06-12T22:12:03.147Z,47.1
2017-06-12T22:22:03.478Z,46.5
2017-06-12T22:27:03.820Z,46.8
2017-06-12T22:32:03.460Z,46.8
2017-06-12T22:37:03.687Z,46.8
2017-06-12T22:42:03.290Z,46.9
2017-06-12T22:47:03.771Z,46.8
2017-06-12T22:52:03.275Z,46.8
2017-06-12T22:57:03.700Z,46.8
2017-06-12T23:02:03.186Z,46.8
2017-06-12T23:07:03.559Z,46.7
2017-06-12T23:12:03.659Z,46.7
2017-06-12T23:17:03.566Z,46.7
2017-06-12T23:22:03.035Z,46.6
2017-06-12T23:27:03.694Z,46.7
2017-06-12T23:32:03.329Z,46.7
2017-06-12T23:37:03.947Z,46.8
2017-06-12T23:42:03.881Z,46.7
2017-06-12T23:47:03.714Z,46.7
2017-06-12T23:52:03.644Z,46.6
2017-06-12T23:57:03.332Z,46.6
